createdAt,value
2023-12-13T00:00:11.620Z,0.87
2023-12-13T00:02:43.048Z,0.70
2023-12-13T00:05:11.887Z,1.20
2023-12-13T00:07:40.590Z,1.00
2023-12-13T00:10:09.994Z,0.60
2023-12-13T00:12:38.623Z,0.70
2023-12-13T00:15:08.455Z,0.53
2023-12-13T00:17:38.735Z,1.07
2023-12-13T00:20:09.022Z,0.87
2023-12-13T00:22:37.693Z,1.00
2023-12-13T00:25:07.273Z,0.73
2023-12-13T00:27:36.246Z,0.70
2023-12-13T00:30:06.213Z,1.17
2023-12-13T00:32:35.429Z,1.30
2023-12-13T00:35:07.715Z,0.50
2023-12-13T00:37:36.584Z,0.70
2023-12-13T00:40:07.849Z,0.93
2023-12-13T00:42:36.769Z,0.57
2023-12-13T00:45:07.112Z,0.63
2023-12-13T00:47:36.197Z,0.70
2023-12-13T00:50:08.037Z,0.63
2023-12-13T00:52:37.186Z,0.63
2023-12-13T00:55:07.017Z,0.70
2023-12-13T00:57:36.262Z,1.50
2023-12-13T01:00:06.546Z,0.83
2023-12-13T01:02:35.223Z,0.47
2023-12-13T01:05:04.864Z,0.70
2023-12-13T01:07:35.227Z,0.90
2023-12-13T01:10:04.105Z,1.23
2023-12-13T01:12:32.842Z,1.40
2023-12-13T01:15:01.730Z,0.60
2023-12-13T01:17:30.551Z,1.20
2023-12-13T01:19:59.821Z,1.90
2023-12-13T01:22:29.812Z,0.77
2023-12-13T01:24:59.734Z,0.80
2023-12-13T01:27:28.375Z,0.67
2023-12-13T01:29:57.561Z,0.67
2023-12-13T01:32:26.337Z,1.00
2023-12-13T01:34:55.286Z,0.90
2023-12-13T01:37:24.101Z,0.83
2023-12-13T01:39:57.387Z,1.27
2023-12-13T01:42:27.386Z,1.20
2023-12-13T01:44:55.977Z,0.63
2023-12-13T01:47:24.548Z,1.70
2023-12-13T01:49:53.161Z,1.20
2023-12-13T01:52:22.166Z,1.23
2023-12-13T01:54:52.564Z,1.20
2023-12-13T01:57:21.638Z,0.60
2023-12-13T01:59:52.232Z,1.33
2023-12-13T02:02:20.974Z,1.20
2023-12-13T02:04:50.229Z,1.00
2023-12-13T02:07:18.987Z,1.13
2023-12-13T02:09:47.577Z,0.70
2023-12-13T02:12:16.384Z,0.50
2023-12-13T02:14:45.204Z,1.00
2023-12-13T02:17:15.229Z,1.17
2023-12-13T02:19:43.981Z,0.80
2023-12-13T02:22:13.986Z,1.20
2023-12-13T02:24:46.062Z,0.93
2023-12-13T02:27:15.328Z,0.70
2023-12-13T02:29:43.885Z,1.10
2023-12-13T02:32:12.456Z,0.53
2023-12-13T02:34:42.235Z,0.80
2023-12-13T02:37:10.934Z,0.77
2023-12-13T02:39:40.941Z,0.50
2023-12-13T02:42:09.526Z,1.37
2023-12-13T02:44:39.925Z,0.73
2023-12-13T02:47:08.486Z,0.73
2023-12-13T02:49:37.125Z,1.13
2023-12-13T02:52:06.498Z,0.97
2023-12-13T02:54:35.081Z,0.67
2023-12-13T02:57:05.969Z,1.23
2023-12-13T02:59:34.525Z,0.60
2023-12-13T03:02:03.273Z,1.10
2023-12-13T03:04:31.940Z,1.07
2023-12-13T03:07:01.352Z,1.20
2023-12-13T03:09:29.882Z,1.50
2023-12-13T03:11:58.466Z,0.80
2023-12-13T03:14:28.431Z,0.87
2023-12-13T03:16:57.249Z,0.80
2023-12-13T03:19:26.051Z,0.57
2023-12-13T03:21:54.751Z,1.00
2023-12-13T03:24:23.328Z,0.90
2023-12-13T03:26:51.905Z,0.57
2023-12-13T03:29:20.522Z,1.10
2023-12-13T03:31:50.482Z,0.67
2023-12-13T03:34:19.138Z,0.73
2023-12-13T03:36:48.537Z,0.90
2023-12-13T03:39:17.330Z,0.50
2023-12-13T03:41:45.915Z,0.90
2023-12-13T03:44:14.514Z,1.10
2023-12-13T03:46:43.427Z,0.97
2023-12-13T03:49:13.597Z,1.10
2023-12-13T03:51:44.647Z,1.03
2023-12-13T03:54:13.277Z,1.20
2023-12-13T03:56:42.236Z,0.57
2023-12-13T03:59:11.025Z,1.23
2023-12-13T04:01:39.705Z,1.10
2023-12-13T04:04:09.110Z,1.27
2023-12-13T04:06:39.194Z,1.00
2023-12-13T04:09:07.950Z,0.90
2023-12-13T04:11:36.774Z,0.93
2023-12-13T04:14:05.737Z,1.00
2023-12-13T04:16:34.566Z,0.97
2023-12-13T04:19:03.256Z,1.47
2023-12-13T04:21:31.916Z,0.97
2023-12-13T04:24:03.373Z,0.97
2023-12-13T04:26:31.962Z,1.10
2023-12-13T04:29:00.596Z,2.07
2023-12-13T04:31:30.046Z,1.40
2023-12-13T04:33:58.814Z,1.07
2023-12-13T04:36:27.765Z,1.03
2023-12-13T04:38:56.312Z,1.23
2023-12-13T04:41:26.352Z,0.90
2023-12-13T04:43:55.070Z,0.63
2023-12-13T04:46:23.819Z,1.07
2023-12-13T04:48:52.394Z,1.00
2023-12-13T04:51:21.172Z,1.87
2023-12-13T04:53:49.809Z,1.10
2023-12-13T04:56:18.775Z,1.07
2023-12-13T04:58:48.804Z,1.33
2023-12-13T05:01:17.547Z,1.63
2023-12-13T05:03:46.968Z,0.83
2023-12-13T05:06:16.204Z,1.00
2023-12-13T05:08:44.856Z,1.40
2023-12-13T05:11:13.508Z,1.00
2023-12-13T05:13:42.200Z,1.17
2023-12-13T05:16:12.427Z,1.00
2023-12-13T05:18:41.197Z,1.40
2023-12-13T05:21:09.791Z,1.07
2023-12-13T05:23:38.425Z,1.37
2023-12-13T05:26:07.497Z,1.17
2023-12-13T05:28:36.842Z,1.10
2023-12-13T05:31:06.091Z,1.40
2023-12-13T05:33:36.861Z,1.30
2023-12-13T05:36:05.969Z,1.77
2023-12-13T05:38:34.521Z,1.17
2023-12-13T05:41:03.759Z,1.73
2023-12-13T05:43:32.405Z,2.43
2023-12-13T05:46:01.035Z,1.23
2023-12-13T05:48:29.708Z,1.23
2023-12-13T05:50:59.754Z,1.10
2023-12-13T05:53:28.923Z,1.23
2023-12-13T05:55:57.768Z,1.87
2023-12-13T05:58:27.299Z,1.23
2023-12-13T06:00:55.904Z,1.40
2023-12-13T06:03:24.533Z,2.87
2023-12-13T06:05:53.167Z,1.67
2023-12-13T06:08:23.170Z,1.73
2023-12-13T06:10:51.749Z,2.07
2023-12-13T06:13:20.464Z,1.63
2023-12-13T06:15:49.206Z,1.37
2023-12-13T06:18:18.186Z,1.30
2023-12-13T06:20:46.769Z,1.77
2023-12-13T06:23:15.324Z,1.37
2023-12-13T06:25:45.410Z,1.53
2023-12-13T06:28:14.034Z,1.27
2023-12-13T06:30:43.470Z,1.33
2023-12-13T06:33:12.318Z,1.33
2023-12-13T06:35:40.927Z,2.23
2023-12-13T06:38:09.459Z,1.50
2023-12-13T06:40:38.100Z,1.67
2023-12-13T06:43:08.639Z,1.53
2023-12-13T06:45:37.463Z,1.53
2023-12-13T06:48:07.730Z,1.73
2023-12-13T06:50:36.435Z,1.67
2023-12-13T06:53:05.266Z,1.30
2023-12-13T06:55:33.849Z,0.93
2023-12-13T06:58:02.639Z,1.10
2023-12-13T07:00:32.562Z,1.83
2023-12-13T07:03:01.084Z,1.50
2023-12-13T07:05:30.089Z,0.83
2023-12-13T07:07:58.764Z,1.40
2023-12-13T07:10:28.169Z,1.63
2023-12-13T07:12:56.748Z,1.70
2023-12-13T07:15:25.264Z,1.97
2023-12-13T07:17:57.260Z,2.07
2023-12-13T07:20:26.160Z,1.40
2023-12-13T07:22:54.747Z,2.10
2023-12-13T07:25:23.498Z,2.13
2023-12-13T07:27:52.110Z,1.83
2023-12-13T07:30:21.030Z,1.67
2023-12-13T07:32:49.671Z,1.70
2023-12-13T07:35:20.060Z,1.13
2023-12-13T07:37:50.352Z,1.20
2023-12-13T07:40:19.089Z,1.40
2023-12-13T07:42:48.214Z,0.83
2023-12-13T07:45:17.314Z,0.90
2023-12-13T07:48:00.277Z,1.27
2023-12-13T07:50:37.790Z,1.20
2023-12-13T07:53:06.487Z,1.83
2023-12-13T07:55:35.054Z,1.60
2023-12-13T07:58:03.971Z,1.37
2023-12-13T08:00:32.526Z,0.83
2023-12-13T08:03:01.146Z,1.17
2023-12-13T08:05:29.754Z,1.57
2023-12-13T08:07:59.655Z,1.47
2023-12-13T08:10:28.614Z,2.00
2023-12-13T08:12:57.197Z,0.87
2023-12-13T08:15:25.740Z,1.57
2023-12-13T08:17:54.442Z,1.07
2023-12-13T08:20:24.276Z,1.10
2023-12-13T08:22:52.813Z,1.03
2023-12-13T08:25:22.838Z,1.70
2023-12-13T08:27:51.459Z,1.33
2023-12-13T08:30:20.174Z,1.93
2023-12-13T08:32:48.898Z,1.00
2023-12-13T08:35:18.092Z,1.80
2023-12-13T08:37:46.922Z,1.53
2023-12-13T08:40:15.930Z,1.30
2023-12-13T08:42:46.182Z,1.83
2023-12-13T08:45:15.658Z,1.90
2023-12-13T08:47:44.294Z,2.40
2023-12-13T08:50:13.026Z,0.90
2023-12-13T08:52:41.756Z,1.03
2023-12-13T08:55:10.859Z,0.93
2023-12-13T08:57:39.876Z,1.97
2023-12-13T09:00:12.850Z,1.00
2023-12-13T09:02:41.550Z,0.80
2023-12-13T09:05:10.416Z,1.47
2023-12-13T09:07:39.528Z,1.27
2023-12-13T09:10:10.541Z,1.73
2023-12-13T09:12:39.602Z,1.20
2023-12-13T09:15:09.891Z,1.77
2023-12-13T09:17:38.806Z,1.40
2023-12-13T09:20:11.162Z,1.70
2023-12-13T09:22:40.047Z,1.53
2023-12-13T09:25:09.728Z,0.93
2023-12-13T09:27:38.472Z,1.60
2023-12-13T09:30:10.835Z,0.97
2023-12-13T09:32:39.769Z,0.90
2023-12-13T09:35:08.752Z,1.00
2023-12-13T09:37:37.721Z,1.80
2023-12-13T09:40:08.825Z,1.43
2023-12-13T09:42:41.889Z,1.73
2023-12-13T09:45:14.176Z,1.10
2023-12-13T09:47:43.377Z,1.10
2023-12-13T09:50:12.541Z,1.67
2023-12-13T09:52:43.315Z,1.27
2023-12-13T09:55:12.559Z,1.40
2023-12-13T09:57:41.682Z,1.53
2023-12-13T10:00:16.918Z,1.77
2023-12-13T10:02:47.774Z,1.13
2023-12-13T10:05:19.499Z,1.37
2023-12-13T10:07:49.766Z,1.30
2023-12-13T10:10:18.966Z,1.57
2023-12-13T10:12:53.235Z,1.10
2023-12-13T10:15:23.613Z,1.20
2023-12-13T10:17:52.430Z,0.97
2023-12-13T10:20:21.007Z,1.40
2023-12-13T10:22:50.551Z,0.97
2023-12-13T10:25:21.633Z,1.43
2023-12-13T10:27:50.229Z,1.23
2023-12-13T10:30:20.238Z,1.83
2023-12-13T10:32:50.176Z,1.70
2023-12-13T10:35:20.683Z,1.97
2023-12-13T10:37:51.281Z,1.73
2023-12-13T10:40:22.027Z,1.63
2023-12-13T10:42:54.180Z,1.90
2023-12-13T10:45:25.864Z,1.83
2023-12-13T10:48:02.527Z,1.30
2023-12-13T10:50:31.916Z,1.97
2023-12-13T10:53:03.162Z,1.83
2023-12-13T10:55:32.300Z,1.83
2023-12-13T10:58:01.356Z,2.20
2023-12-13T11:00:30.098Z,1.70
2023-12-13T11:03:05.037Z,1.67
2023-12-13T11:05:33.952Z,1.90
2023-12-13T11:08:02.682Z,2.70
2023-12-13T11:10:31.267Z,2.20
2023-12-13T11:13:00.310Z,2.70
2023-12-13T11:15:30.151Z,3.50
2023-12-13T11:18:05.119Z,2.43
2023-12-13T11:20:34.605Z,3.00
2023-12-13T11:23:09.644Z,2.93
2023-12-13T11:25:40.187Z,2.80
2023-12-13T11:28:08.857Z,2.67
2023-12-13T11:30:42.834Z,3.23
2023-12-13T11:33:17.241Z,3.93
2023-12-13T11:35:48.019Z,4.47
2023-12-13T11:38:17.615Z,2.23
2023-12-13T11:40:47.448Z,3.40
2023-12-13T11:43:16.194Z,2.77
2023-12-13T11:45:51.249Z,2.83
2023-12-13T11:48:21.875Z,3.50
2023-12-13T11:50:54.249Z,4.13
2023-12-13T11:53:22.817Z,2.83
2023-12-13T11:55:51.447Z,2.87
2023-12-13T11:58:20.046Z,3.23
2023-12-13T12:00:48.729Z,3.07
2023-12-13T12:03:17.778Z,3.30
2023-12-13T12:05:49.032Z,4.00
2023-12-13T12:08:17.833Z,3.60
2023-12-13T12:10:47.534Z,3.23
2023-12-13T12:13:16.624Z,3.50
2023-12-13T12:15:45.505Z,3.30
2023-12-13T12:18:15.535Z,3.90
2023-12-13T12:20:44.269Z,3.23
2023-12-13T12:23:14.245Z,4.37
2023-12-13T12:25:43.859Z,4.17
2023-12-13T12:28:12.972Z,4.13
2023-12-13T12:30:44.257Z,4.57
2023-12-13T12:33:14.837Z,3.60
2023-12-13T12:35:43.744Z,3.73
2023-12-13T12:38:15.469Z,3.07
2023-12-13T12:40:44.307Z,3.37
2023-12-13T12:43:15.952Z,3.50
2023-12-13T12:45:45.611Z,3.80
2023-12-13T12:48:14.630Z,3.73
2023-12-13T12:50:43.591Z,3.00
2023-12-13T12:53:14.495Z,2.83
2023-12-13T12:55:44.182Z,2.80
2023-12-13T12:58:12.750Z,2.90
2023-12-13T13:00:42.073Z,2.73
2023-12-13T13:03:10.706Z,2.60
2023-12-13T13:05:39.534Z,2.67
2023-12-13T13:08:08.207Z,3.93
2023-12-13T13:10:38.228Z,3.13
2023-12-13T13:13:06.948Z,3.03
2023-12-13T13:15:36.698Z,3.90
2023-12-13T13:18:05.730Z,2.83
2023-12-13T13:20:35.905Z,3.40
2023-12-13T13:23:05.969Z,2.70
2023-12-13T13:25:35.281Z,2.77
2023-12-13T13:28:05.386Z,3.47
2023-12-13T13:30:35.980Z,3.07
2023-12-13T13:33:04.900Z,3.73
2023-12-13T13:35:33.529Z,3.33
2023-12-13T13:38:02.190Z,3.40
2023-12-13T13:40:31.021Z,3.03
2023-12-13T13:43:00.955Z,3.23
2023-12-13T13:45:31.040Z,3.17
2023-12-13T13:47:59.724Z,2.93
2023-12-13T13:50:28.432Z,2.63
2023-12-13T13:52:57.222Z,3.33
2023-12-13T13:55:26.114Z,2.53
2023-12-13T13:57:54.749Z,2.67
2023-12-13T14:00:23.327Z,3.00
2023-12-13T14:02:53.460Z,3.17
2023-12-13T14:05:22.259Z,2.80
2023-12-13T14:07:52.537Z,3.43
2023-12-13T14:10:21.250Z,3.37
2023-12-13T14:12:49.841Z,3.10
2023-12-13T14:15:19.583Z,2.80
2023-12-13T14:17:48.600Z,3.93
2023-12-13T14:20:18.937Z,3.30
2023-12-13T14:22:47.900Z,4.40
2023-12-13T14:25:16.611Z,3.00
2023-12-13T14:27:45.161Z,3.13
2023-12-13T14:30:14.625Z,2.50
2023-12-13T14:32:44.243Z,2.83
2023-12-13T14:35:13.304Z,3.23
2023-12-13T14:37:44.070Z,3.60
2023-12-13T14:40:16.804Z,2.67
2023-12-13T14:42:46.577Z,2.60
2023-12-13T14:45:15.430Z,2.67
2023-12-13T14:47:44.443Z,2.30
2023-12-13T14:50:13.680Z,1.93
2023-12-13T14:52:44.234Z,2.50
2023-12-13T14:55:14.276Z,3.17
2023-12-13T14:57:42.838Z,2.03
2023-12-13T15:00:13.293Z,2.47
2023-12-13T15:02:43.307Z,1.57
2023-12-13T15:05:13.677Z,2.57
2023-12-13T15:07:45.355Z,2.53
2023-12-13T15:10:14.130Z,2.23
2023-12-13T15:12:43.215Z,1.80
2023-12-13T15:15:12.473Z,3.00
2023-12-13T15:17:41.443Z,1.83
2023-12-13T15:20:10.731Z,1.83
2023-12-13T15:22:39.540Z,2.07
2023-12-13T15:25:14.801Z,2.03
2023-12-13T15:27:45.959Z,2.00
2023-12-13T15:30:14.875Z,1.70
2023-12-13T15:32:45.595Z,2.23
2023-12-13T15:35:14.468Z,2.95
2023-12-13T15:37:43.157Z,2.77
2023-12-13T15:40:14.009Z,1.87
2023-12-13T15:42:43.703Z,2.03
2023-12-13T15:45:14.010Z,2.20
2023-12-13T15:47:42.661Z,1.53
2023-12-13T15:50:11.596Z,2.03
2023-12-13T15:52:41.132Z,1.17
2023-12-13T15:55:10.414Z,1.73
2023-12-13T15:57:40.588Z,1.70
2023-12-13T16:00:10.229Z,1.43
2023-12-13T16:02:42.308Z,1.67
2023-12-13T16:05:12.187Z,2.30
2023-12-13T16:07:42.680Z,1.40
2023-12-13T16:10:13.210Z,1.63
2023-12-13T16:12:44.882Z,1.60
2023-12-13T16:15:14.781Z,2.10
2023-12-13T16:17:44.047Z,2.63
2023-12-13T16:20:13.282Z,1.87
2023-12-13T16:22:42.037Z,1.43
2023-12-13T16:25:10.794Z,1.90
2023-12-13T16:27:39.372Z,1.83
2023-12-13T16:30:12.167Z,2.20
2023-12-13T16:32:42.032Z,2.27
2023-12-13T16:35:11.064Z,2.10
2023-12-13T16:37:39.745Z,1.23
2023-12-13T16:40:12.152Z,1.40
2023-12-13T16:42:41.104Z,1.23
2023-12-13T16:45:12.665Z,2.33
2023-12-13T16:47:41.333Z,2.13
2023-12-13T16:50:11.124Z,1.30
2023-12-13T16:52:40.260Z,2.60
2023-12-13T16:55:09.919Z,2.03
2023-12-13T16:57:38.653Z,1.57
2023-12-13T17:00:08.383Z,1.73
2023-12-13T17:02:44.005Z,0.90
2023-12-13T17:05:15.641Z,1.70
2023-12-13T17:07:45.472Z,2.00
2023-12-13T17:10:14.657Z,1.40
2023-12-13T17:12:43.267Z,1.80
2023-12-13T17:15:13.152Z,1.50
2023-12-13T17:17:43.309Z,2.13
2023-12-13T17:20:14.481Z,2.13
2023-12-13T17:22:43.444Z,2.03
2023-12-13T17:25:16.393Z,1.77
2023-12-13T17:27:45.058Z,1.50
2023-12-13T17:30:14.324Z,1.57
2023-12-13T17:32:44.376Z,2.00
2023-12-13T17:35:13.079Z,1.53
2023-12-13T17:37:41.880Z,1.00
2023-12-13T17:40:11.529Z,1.40
2023-12-13T17:42:42.565Z,1.23
2023-12-13T17:45:12.172Z,1.97
2023-12-13T17:47:41.079Z,1.60
2023-12-13T17:50:11.859Z,2.33
2023-12-13T17:52:40.805Z,2.10
2023-12-13T17:55:09.986Z,1.87
2023-12-13T17:57:39.253Z,2.00
2023-12-13T18:00:09.078Z,1.30
2023-12-13T18:02:37.835Z,1.93
2023-12-13T18:05:08.251Z,1.23
2023-12-13T18:07:38.436Z,2.33
2023-12-13T18:10:07.845Z,2.27
2023-12-13T18:12:36.562Z,2.90
2023-12-13T18:15:05.896Z,2.67
2023-12-13T18:17:34.659Z,1.90
2023-12-13T18:20:03.693Z,2.90
2023-12-13T18:22:32.669Z,2.30
2023-12-13T18:25:03.611Z,2.60
2023-12-13T18:27:32.166Z,1.93
2023-12-13T18:30:00.816Z,2.17
2023-12-13T18:32:29.512Z,3.40
2023-12-13T18:34:58.156Z,2.57
2023-12-13T18:37:29.607Z,1.70
2023-12-13T18:39:59.682Z,3.10
2023-12-13T18:42:29.556Z,2.37
2023-12-13T18:44:59.193Z,2.43
2023-12-13T18:47:27.910Z,3.37
2023-12-13T18:49:56.835Z,2.67
2023-12-13T18:52:25.491Z,1.63
2023-12-13T18:54:54.128Z,4.37
2023-12-13T18:57:22.720Z,2.80
2023-12-13T18:59:53.122Z,4.23
2023-12-13T19:02:21.955Z,1.90
2023-12-13T19:04:50.557Z,3.00
2023-12-13T19:07:19.329Z,3.53
2023-12-13T19:09:47.914Z,3.30
2023-12-13T19:12:16.482Z,2.57
2023-12-13T19:14:45.053Z,2.93
2023-12-13T19:17:15.440Z,2.70
2023-12-13T19:19:44.213Z,2.40
2023-12-13T19:22:12.809Z,3.50
2023-12-13T19:24:42.993Z,3.37
2023-12-13T19:27:11.891Z,3.50
2023-12-13T19:29:40.435Z,1.97
2023-12-13T19:32:09.383Z,2.87
2023-12-13T19:34:39.477Z,3.07
2023-12-13T19:37:09.788Z,3.30
2023-12-13T19:39:38.848Z,3.03
2023-12-13T19:42:08.158Z,2.37
2023-12-13T19:44:38.121Z,3.70
2023-12-13T19:47:08.860Z,2.27
2023-12-13T19:49:39.009Z,4.17
2023-12-13T19:52:07.889Z,2.37
2023-12-13T19:54:37.587Z,3.43
2023-12-13T19:57:06.491Z,2.73
2023-12-13T19:59:35.055Z,3.07
2023-12-13T20:02:03.770Z,2.17
2023-12-13T20:04:32.796Z,2.33
2023-12-13T20:07:02.884Z,2.73
2023-12-13T20:09:31.454Z,3.00
2023-12-13T20:12:00.175Z,1.10
2023-12-13T20:14:29.033Z,3.00
2023-12-13T20:16:58.906Z,2.67
2023-12-13T20:19:27.478Z,1.97
2023-12-13T20:21:56.074Z,1.67
2023-12-13T20:24:26.020Z,2.10
2023-12-13T20:26:54.573Z,1.67
2023-12-13T20:29:23.340Z,1.73
2023-12-13T20:31:51.996Z,0.90
2023-12-13T20:34:20.871Z,1.80
2023-12-13T20:36:49.836Z,1.47
2023-12-13T20:39:18.841Z,2.50
2023-12-13T20:41:48.793Z,2.10
2023-12-13T20:44:18.331Z,1.77
2023-12-13T20:46:48.560Z,2.00
2023-12-13T20:49:17.195Z,1.27
2023-12-13T20:51:45.799Z,1.40
2023-12-13T20:54:14.322Z,1.70
2023-12-13T20:56:42.875Z,1.13
2023-12-13T20:59:12.794Z,1.07
2023-12-13T21:01:41.431Z,1.13
2023-12-13T21:04:10.019Z,0.60
2023-12-13T21:06:38.519Z,1.00
2023-12-13T21:09:08.414Z,0.93
2023-12-13T21:11:37.200Z,1.07
2023-12-13T21:14:07.046Z,1.10
2023-12-13T21:16:37.131Z,0.87
2023-12-13T21:19:06.226Z,1.40
2023-12-13T21:21:34.931Z,1.00
2023-12-13T21:24:10.850Z,1.20
2023-12-13T21:26:46.247Z,1.53
2023-12-13T21:29:14.900Z,0.93
2023-12-13T21:31:44.919Z,1.13
2023-12-13T21:34:13.661Z,1.17
2023-12-13T21:36:45.771Z,1.63
2023-12-13T21:39:14.576Z,1.50
2023-12-13T21:41:43.314Z,1.87
2023-12-13T21:44:12.092Z,2.13
2023-12-13T21:46:40.795Z,2.40
2023-12-13T21:49:10.772Z,2.30
2023-12-13T21:51:39.540Z,2.80
2023-12-13T21:54:08.072Z,2.50
2023-12-13T21:56:36.605Z,1.73
2023-12-13T21:59:05.240Z,1.83
2023-12-13T22:01:33.880Z,1.20
2023-12-13T22:04:03.887Z,1.97
2023-12-13T22:06:33.973Z,2.07
2023-12-13T22:09:02.559Z,1.38
2023-12-13T22:11:31.214Z,1.60
2023-12-13T22:13:59.889Z,2.43
2023-12-13T22:16:29.458Z,1.77
2023-12-13T22:19:11.621Z,1.60
2023-12-13T22:21:48.817Z,1.80
2023-12-13T22:24:17.566Z,1.93
2023-12-13T22:26:46.126Z,1.53
2023-12-13T22:29:14.806Z,2.00
2023-12-13T22:31:43.538Z,1.63
2023-12-13T22:34:13.509Z,2.20
2023-12-13T22:36:43.498Z,1.33
2023-12-13T22:39:12.457Z,2.03
2023-12-13T22:41:42.723Z,1.93
2023-12-13T22:44:12.120Z,1.60
2023-12-13T22:46:40.797Z,2.37
2023-12-13T22:49:09.710Z,1.57
2023-12-13T22:52:17.406Z,1.40
2023-12-13T22:54:28.319Z,1.23
2023-12-13T22:56:56.884Z,1.50
2023-12-13T22:59:25.549Z,1.60
2023-12-13T23:01:57.799Z,1.20
2023-12-13T23:04:28.243Z,1.57
2023-12-13T23:06:56.930Z,1.63
2023-12-13T23:09:25.914Z,1.77
2023-12-13T23:11:55.884Z,1.67
2023-12-13T23:14:24.339Z,1.30
2023-12-13T23:16:53.177Z,1.07
2023-12-13T23:19:21.775Z,1.37
2023-12-13T23:21:50.313Z,1.37
2023-12-13T23:24:18.910Z,1.80
2023-12-13T23:26:47.459Z,1.63
2023-12-13T23:29:18.876Z,1.70
2023-12-13T23:31:47.484Z,2.47
2023-12-13T23:34:16.086Z,1.57
2023-12-13T23:36:44.643Z,1.90
2023-12-13T23:39:13.227Z,1.43
2023-12-13T23:41:41.789Z,0.93
2023-12-13T23:44:10.476Z,2.30
2023-12-13T23:46:40.514Z,1.50
2023-12-13T23:49:10.985Z,1.73
2023-12-13T23:51:39.638Z,1.87
2023-12-13T23:54:08.237Z,2.07
2023-12-13T23:56:37.157Z,2.50
2023-12-13T23:59:04.895Z,1.50
